Time;durP1;ratioP1;P1;durP2;ratioP2;P2;SDS_P1;SDS_P2;PMS_P1;PMS_P2;Temp;Humidity;BMP_temperature;BMP_pressure;BME280_temperature;BME280_humidity;BME280_pressure;Samples;Min_cycle;Max_cycle;Signal;HPM_P1;HPM_P2
2022/04/17 00:01:06;;;;;;;4.62;2.37;;;;;;;4.01;74.27;99720.32;1726569;82;21052;-72
2022/04/17 00:03:35;;;;;;;2.70;2.00;;;;;;;3.98;74.47;99723.06;1729783;82;20995;-71
2022/04/17 00:06:06;;;;;;;2.20;1.90;;;;;;;3.94;74.56;99721.95;1722324;82;21191;-71
2022/04/17 00:08:35;;;;;;;5.37;2.60;;;;;;;3.96;74.68;99720.34;1729044;82;21014;-74
2022/04/17 00:11:09;;;;;;;4.92;2.58;;;;;;;3.93;74.66;99720.86;1725043;82;21048;-70
2022/04/17 00:13:37;;;;;;;4.05;2.40;;;;;;;3.89;74.79;99722.77;1733342;81;21149;-72
2022/04/17 00:16:05;;;;;;;4.45;2.45;;;;;;;3.91;74.84;99724.42;1729837;82;21532;-73
2022/04/17 00:18:35;;;;;;;6.55;2.50;;;;;;;3.91;74.91;99718.41;1729749;82;21529;-70
2022/04/17 00:21:08;;;;;;;3.65;2.22;;;;;;;3.85;75.03;99714.88;1725807;82;21016;-71
2022/04/17 00:23:44;;;;;;;2.87;2.35;;;;;;;3.83;75.17;99723.86;1657035;85;21050;-74
2022/04/17 00:26:16;;;;;;;5.55;2.77;;;;;;;3.83;75.24;99727.95;1684018;85;21046;-70
2022/04/17 00:28:45;;;;;;;5.08;3.05;;;;;;;3.82;75.54;99724.92;1724823;82;21560;-75
2022/04/17 00:31:14;;;;;;;5.33;2.40;;;;;;;3.78;75.78;99723.84;1708228;82;21262;-70
2022/04/17 00:33:40;;;;;;;4.15;2.42;;;;;;;3.75;76.23;99721.10;1705649;84;21083;-71
2022/04/17 00:36:08;;;;;;;4.53;3.10;;;;;;;3.73;76.63;99721.11;1705651;84;21012;-70
2022/04/17 00:39:05;;;;;;;5.90;2.95;;;;;;;3.77;76.71;99722.22;1716121;82;21552;-72
2022/04/17 00:41:44;;;;;;;4.42;2.75;;;;;;;3.76;76.88;99721.39;1655282;86;21049;-72
2022/04/17 00:44:13;;;;;;;4.22;2.40;;;;;;;3.82;77.08;99722.77;1684104;85;21163;-71
2022/04/17 00:46:44;;;;;;;4.28;3.02;;;;;;;3.87;77.09;99718.69;1684302;84;21136;-71
2022/04/17 00:49:10;;;;;;;4.92;3.00;;;;;;;3.83;77.34;99717.05;1729468;82;21085;-71
2022/04/17 00:51:40;;;;;;;7.17;3.17;;;;;;;3.91;77.25;99719.77;1728824;82;21099;-71
2022/04/17 00:54:08;;;;;;;4.25;3.10;;;;;;;3.93;77.30;99712.14;1734706;82;21458;-71
2022/04/17 00:56:34;;;;;;;4.12;2.95;;;;;;;3.97;77.33;99715.98;1735451;82;21184;-71
2022/04/17 00:59:04;;;;;;;8.65;3.45;;;;;;;3.99;77.27;99719.80;1730122;82;21049;-70
2022/04/17 01:01:33;;;;;;;3.77;3.10;;;;;;;3.99;77.48;99723.89;1729289;82;20977;-71
2022/04/17 01:04:03;;;;;;;3.62;2.90;;;;;;;4.01;77.50;99723.05;1730244;82;21087;-72
2022/04/17 01:06:35;;;;;;;4.10;2.87;;;;;;;4.03;77.55;99718.15;1726956;82;21624;-72
2022/04/17 01:09:02;;;;;;;4.55;3.00;;;;;;;4.06;77.43;99713.51;1708859;82;21717;-74
2022/04/17 01:11:32;;;;;;;4.00;2.92;;;;;;;4.04;77.54;99712.98;1729740;82;21060;-71
2022/04/17 01:13:59;;;;;;;5.42;3.33;;;;;;;4.06;77.66;99706.69;1730130;82;21002;-72
2022/04/17 01:16:27;;;;;;;5.92;3.42;;;;;;;4.05;77.61;99714.61;1726136;82;21093;-71
2022/04/17 01:19:02;;;;;;;4.78;3.47;;;;;;;4.04;77.72;99718.44;1729581;82;21015;-73
2022/04/17 01:21:31;;;;;;;4.55;3.25;;;;;;;4.01;77.87;99714.87;1726647;82;21076;-72
2022/04/17 01:26:56;;;;;;;3.08;2.37;;;;;;;4.06;78.04;99722.26;1728680;82;20998;-72
2022/04/17 01:29:40;;;;;;;4.15;2.67;;;;;;;4.04;78.18;99715.72;1725656;82;21046;-72
2022/04/17 01:32:10;;;;;;;3.50;2.65;;;;;;;4.09;78.15;99712.99;1729077;82;21019;-72
2022/04/17 01:34:39;;;;;;;4.08;3.10;;;;;;;4.05;78.23;99711.88;1729562;82;22141;-71
2022/04/17 01:37:06;;;;;;;6.15;2.85;;;;;;;4.05;78.20;99711.06;1730208;82;20993;-72
2022/04/17 01:39:36;;;;;;;3.52;2.75;;;;;;;4.04;78.28;99706.17;1729466;82;21008;-70
2022/04/17 01:42:11;;;;;;;4.03;3.42;;;;;;;4.05;78.35;99709.16;1729153;81;20997;-72
2022/04/17 01:44:41;;;;;;;2.92;2.60;;;;;;;4.08;78.33;99702.33;1729205;82;20997;-71
2022/04/17 01:47:09;;;;;;;4.35;2.98;;;;;;;4.11;78.50;99712.72;1730477;82;21220;-72
2022/04/17 01:49:41;;;;;;;3.40;2.45;;;;;;;4.10;78.31;99709.16;1729553;82;21007;-75
2022/04/17 01:52:13;;;;;;;2.90;2.55;;;;;;;4.11;78.36;99704.53;1722861;82;21525;-72
2022/04/17 01:54:43;;;;;;;3.37;2.62;;;;;;;4.15;78.48;99704.25;1720071;83;21014;-71
2022/04/17 01:57:11;;;;;;;3.72;2.77;;;;;;;4.18;78.45;99704.27;1700092;83;21568;-71
2022/04/17 01:59:39;;;;;;;3.12;2.45;;;;;;;4.21;78.37;99703.17;1719534;82;21462;-71
2022/04/17 02:02:05;;;;;;;3.35;2.62;;;;;;;4.12;78.30;99697.44;1718626;83;21009;-72
2022/04/17 02:04:36;;;;;;;2.70;2.25;;;;;;;4.06;78.52;99692.26;1711435;83;21015;-71
2022/04/17 02:07:04;;;;;;;2.67;2.12;;;;;;;4.09;78.60;99697.16;1719066;82;20986;-72
2022/04/17 02:09:35;;;;;;;2.27;2.05;;;;;;;4.09;78.67;99692.53;1716566;82;21032;-73
2022/04/17 02:12:05;;;;;;;2.83;2.58;;;;;;;4.09;78.66;99696.63;1703893;83;21265;-74
2022/04/17 02:14:38;;;;;;;4.20;3.05;;;;;;;4.08;78.85;99693.61;1716994;83;21040;-73
2022/04/17 02:17:04;;;;;;;4.75;4.20;;;;;;;4.10;78.72;99691.44;1720327;83;21052;-71
2022/04/17 02:19:41;;;;;;;3.70;3.35;;;;;;;4.01;78.92;99687.59;1706231;82;21065;-72
2022/04/17 02:22:07;;;;;;;4.80;4.30;;;;;;;3.97;79.09;99688.71;1718624;83;21070;-71
2022/04/17 02:24:34;;;;;;;3.83;3.50;;;;;;;3.89;79.27;99690.59;1720728;82;21081;-72
2022/04/17 02:27:01;;;;;;;8.75;4.87;;;;;;;3.87;79.57;99694.16;1714054;83;21043;-71
2022/04/17 02:29:29;;;;;;;5.15;4.65;;;;;;;3.84;79.69;99689.25;1720801;83;21073;-73
2022/04/17 02:31:57;;;;;;;4.42;3.98;;;;;;;3.87;79.82;99687.34;1720222;83;21493;-72
2022/04/17 02:34:29;;;;;;;4.40;4.00;;;;;;;3.88;79.84;99687.59;1720001;83;21534;-71
2022/04/17 02:36:59;;;;;;;;;;;;;;;3.85;79.83;99680.80;1719669;83;21202;-73
2022/04/17 02:39:26;;;;;;;3.67;3.10;;;;;;;3.84;79.94;99681.06;1720388;83;20156;-75
2022/04/17 02:41:52;;;;;;;4.28;3.42;;;;;;;3.81;80.02;99681.05;1718772;83;21011;-74
2022/04/17 02:44:25;;;;;;;3.75;3.35;;;;;;;3.84;80.28;99681.06;1720085;82;20986;-72
2022/04/17 02:49:36;;;;;;;4.12;3.50;;;;;;;3.85;80.24;99680.80;1716791;83;21481;-71
2022/04/17 02:52:04;;;;;;;3.70;3.12;;;;;;;3.85;80.29;99678.06;1721323;82;21077;-73
2022/04/17 02:54:32;;;;;;;3.47;2.80;;;;;;;3.82;80.44;99674.50;1725456;82;21039;-73
2022/04/17 02:56:58;;;;;;;2.95;2.47;;;;;;;3.77;80.83;99670.42;1729837;82;21020;-71
2022/04/17 02:59:27;;;;;;;3.15;2.58;;;;;;;3.78;81.00;99670.69;1730042;82;21519;-70
2022/04/17 03:07:32;;;;;;;3.30;2.30;;;;;;;3.70;81.61;99672.02;1727618;82;21083;-72
2022/04/17 03:10:04;;;;;;;2.70;2.05;;;;;;;3.68;81.91;99672.03;1726595;82;21009;-72
2022/04/17 03:12:38;;;;;;;3.70;2.70;;;;;;;3.66;82.15;99668.22;1730210;82;21033;-70
2022/04/17 03:15:07;;;;;;;3.30;2.50;;;;;;;3.65;82.37;99672.84;1729612;82;21252;-73
2022/04/17 03:17:34;;;;;;;2.45;2.12;;;;;;;3.61;82.54;99670.40;1728834;82;21085;-74
2022/04/17 03:20:03;;;;;;;2.95;2.60;;;;;;;3.61;82.86;99677.21;1729727;82;20977;-73
2022/04/17 03:22:30;;;;;;;3.75;2.33;;;;;;;3.58;82.98;99676.39;1730016;82;21003;-73
2022/04/17 03:25:06;;;;;;;4.75;2.45;;;;;;;3.61;83.05;99676.39;1726289;82;21020;-71
2022/04/17 03:27:33;;;;;;;3.22;2.70;;;;;;;3.62;83.00;99673.39;1730306;82;21256;-72
2022/04/17 03:30:04;;;;;;;2.42;2.20;;;;;;;3.67;83.09;99673.94;1729401;82;21074;-73
2022/04/17 03:32:39;;;;;;;4.08;2.72;;;;;;;3.64;83.44;99675.30;1728878;82;21015;-72
2022/04/17 03:35:08;;;;;;;4.00;2.75;;;;;;;3.69;83.34;99674.48;1729585;82;21052;-72
2022/04/17 03:37:37;;;;;;;2.35;2.15;;;;;;;3.66;83.58;99679.13;1730283;82;21036;-72
2022/04/17 03:40:05;;;;;;;2.95;2.55;;;;;;;3.64;83.52;99679.39;1729858;82;21224;-72
2022/04/17 03:42:38;;;;;;;5.55;2.87;;;;;;;3.64;83.56;99673.12;1680711;82;22424;-73
2022/04/17 03:45:08;;;;;;;3.45;2.47;;;;;;;3.62;83.73;99678.02;1726315;82;21046;-72
2022/04/17 03:47:36;;;;;;;3.37;2.80;;;;;;;3.64;83.89;99678.03;1729023;82;21011;-73
2022/04/17 03:50:06;;;;;;;3.22;2.75;;;;;;;3.68;83.73;99678.84;1730085;82;21533;-72
2022/04/17 03:52:47;;;;;;;4.97;3.20;;;;;;;3.71;83.94;99680.49;1729243;82;21845;-72
2022/04/17 03:55:15;;;;;;;3.62;2.45;;;;;;;3.74;83.68;99681.84;1727648;82;21062;-71
2022/04/17 03:57:42;;;;;;;5.47;2.12;;;;;;;3.79;83.75;99685.15;1729948;82;21055;-71
2022/04/17 04:00:14;;;;;;;4.20;2.75;;;;;;;3.81;83.73;99685.14;1729852;82;21031;-72
2022/04/17 04:02:42;;;;;;;2.90;2.30;;;;;;;3.81;83.56;99697.41;1726203;82;21071;-70
2022/04/17 04:05:14;;;;;;;2.50;2.10;;;;;;;3.81;83.46;99694.67;1729919;82;21265;-70
2022/04/17 04:07:49;;;;;;;2.92;2.50;;;;;;;3.84;83.26;99702.88;1726334;82;21282;-70
2022/04/17 04:10:17;;;;;;;4.58;2.10;;;;;;;3.75;83.41;99695.77;1728970;82;20997;-71
2022/04/17 04:12:47;;;;;;;3.40;2.42;;;;;;;3.80;83.39;99699.87;1729224;82;21012;-71
2022/04/17 04:15:13;;;;;;;2.08;1.87;;;;;;;3.81;83.42;99697.94;1729304;82;20973;-70
2022/04/17 04:17:50;;;;;;;2.33;2.00;;;;;;;3.81;83.30;99693.85;1726713;82;21536;-70
2022/04/17 04:20:20;;;;;;;3.70;2.70;;;;;;;3.84;83.33;99700.95;1730250;82;21509;-69
2022/04/17 04:22:46;;;;;;;3.45;2.35;;;;;;;3.83;83.17;99706.14;1729797;82;21112;-72
2022/04/17 04:25:14;;;;;;;5.00;2.33;;;;;;;3.86;83.05;99700.67;1729111;82;21005;-71
2022/04/17 04:30:25;;;;;;;5.33;2.80;;;;;;;3.76;83.79;99705.04;1726421;82;21577;-72
2022/04/17 04:33:00;;;;;;;4.78;2.45;;;;;;;3.81;83.54;99708.31;1729433;82;21099;-71
2022/04/17 04:35:29;;;;;;;5.90;3.55;;;;;;;3.83;83.35;99708.86;1729553;82;21043;-71
2022/04/17 04:38:00;;;;;;;8.48;3.70;;;;;;;3.81;83.25;99711.03;1729437;82;21008;-71
2022/04/17 04:40:29;;;;;;;6.37;2.90;;;;;;;3.81;83.40;99713.77;1726838;82;21008;-71
2022/04/17 04:42:59;;;;;;;6.55;2.90;;;;;;;3.83;83.44;99721.13;1730031;82;21141;-71
2022/04/17 04:48:12;;;;;;;4.80;2.40;;;;;;;3.86;83.07;99720.59;1726780;82;21028;-71
2022/04/17 04:50:38;;;;;;;5.65;2.67;;;;;;;3.92;82.92;99719.23;1730227;82;21019;-71
2022/04/17 04:53:08;;;;;;;4.92;2.87;;;;;;;3.95;82.75;99718.16;1726226;82;21509;-71
2022/04/17 04:55:36;;;;;;;5.95;2.90;;;;;;;4.03;82.76;99718.72;1730168;82;21135;-73
2022/04/17 04:58:02;;;;;;;4.90;2.52;;;;;;;4.11;82.76;99723.62;1728981;82;21038;-71
2022/04/17 05:00:30;;;;;;;4.03;2.55;;;;;;;4.22;82.83;99721.70;1729894;82;21052;-71
2022/04/17 05:02:57;;;;;;;3.72;2.60;;;;;;;4.31;82.50;99721.98;1729907;82;21003;-72
2022/04/17 05:05:25;;;;;;;4.83;2.55;;;;;;;4.35;81.93;99721.73;1729129;82;21007;-72
2022/04/17 05:07:52;;;;;;;2.85;2.40;;;;;;;4.37;81.63;99723.61;1730018;82;22066;-72
2022/04/17 05:10:22;;;;;;;6.45;2.20;;;;;;;4.40;81.52;99721.73;1709592;82;21004;-72
2022/04/17 05:12:49;;;;;;;3.20;1.95;;;;;;;4.42;81.58;99727.70;1726737;82;21024;-72
2022/04/17 05:15:17;;;;;;;3.08;2.27;;;;;;;4.50;81.03;99726.34;1729924;82;20939;-71
2022/04/17 05:17:45;;;;;;;3.15;2.40;;;;;;;4.51;80.46;99734.80;1729120;82;21550;-72
2022/04/17 05:20:14;;;;;;;3.52;2.98;;;;;;;4.46;80.29;99726.61;1729796;82;21107;-71
2022/04/17 05:22:44;;;;;;;3.20;2.47;;;;;;;4.42;80.22;99728.27;1730136;82;21032;-70
2022/04/17 05:25:12;;;;;;;3.92;2.70;;;;;;;4.42;80.07;99723.61;1729501;82;21042;-71
2022/04/17 05:27:39;;;;;;;5.55;2.30;;;;;;;4.45;80.31;99723.05;1729421;82;21000;-70
2022/04/17 05:30:08;;;;;;;3.58;2.45;;;;;;;4.47;80.18;99720.88;1730195;82;21051;-71
2022/04/17 05:32:35;;;;;;;2.58;2.20;;;;;;;4.50;80.12;99722.26;1729847;82;21542;-70
2022/04/17 05:35:05;;;;;;;2.77;2.02;;;;;;;4.47;79.62;99724.97;1729015;82;20946;-70
2022/04/17 05:37:31;;;;;;;2.72;2.00;;;;;;;4.41;79.51;99730.17;1730239;82;22076;-71
2022/04/17 05:39:59;;;;;;;3.20;2.05;;;;;;;4.37;79.86;99728.53;1730051;82;21034;-71
2022/04/17 05:42:35;;;;;;;4.03;2.27;;;;;;;4.36;79.21;99731.53;1716702;81;20998;-71
2022/04/17 05:45:05;;;;;;;3.58;2.33;;;;;;;4.33;79.45;99728.79;1710472;81;21068;-72
2022/04/17 05:47:33;;;;;;;3.02;2.40;;;;;;;4.32;79.64;99733.98;1728808;81;21044;-71
2022/04/17 05:50:05;;;;;;;4.05;2.58;;;;;;;4.32;79.38;99739.98;1733915;81;21512;-70
2022/04/17 05:52:34;;;;;;;2.40;1.50;;;;;;;4.35;79.67;99732.64;1732355;81;20990;-73
2022/04/17 05:55:03;;;;;;;3.02;1.65;;;;;;;4.41;79.76;99738.89;1738811;81;21075;-72
2022/04/17 05:57:30;;;;;;;2.95;1.47;;;;;;;4.40;79.04;99736.73;1731311;81;22421;-70
2022/04/17 05:59:58;;;;;;;3.83;1.50;;;;;;;4.37;79.07;99739.45;1741116;81;21086;-71
2022/04/17 06:02:27;;;;;;;3.62;1.60;;;;;;;4.38;79.19;99734.81;1707673;82;21042;-73
2022/04/17 06:04:54;;;;;;;5.78;2.12;;;;;;;4.38;79.31;99732.88;1731074;81;21044;-71
2022/04/17 06:07:26;;;;;;;2.67;1.72;;;;;;;4.44;79.52;99743.80;1730124;81;20984;-70
2022/04/17 06:09:56;;;;;;;3.33;1.70;;;;;;;4.47;79.13;99739.98;1733804;81;21002;-72
2022/04/17 06:19:43;;;;;;;1.75;0.98;;;;;;;4.70;78.73;99744.61;1654436;85;21118;-72
2022/04/17 06:22:11;;;;;;;2.62;1.22;;;;;;;4.70;78.83;99753.34;1650927;85;21044;-72
2022/04/17 06:24:38;;;;;;;1.47;1.10;;;;;;;4.73;78.71;99748.69;1635360;85;21145;-72
2022/04/17 06:27:05;;;;;;;3.08;1.47;;;;;;;4.79;78.54;99748.15;1714131;81;21512;-72
2022/04/17 06:29:34;;;;;;;3.30;1.60;;;;;;;4.88;78.41;99746.48;1706790;82;21514;-72
2022/04/17 06:32:06;;;;;;;3.35;1.50;;;;;;;4.97;78.36;99751.66;1726983;81;21075;-70
2022/04/17 06:34:38;;;;;;;3.27;1.98;;;;;;;5.01;78.35;99751.10;1708202;81;21497;-72
2022/04/17 06:37:16;;;;;;;3.65;2.12;;;;;;;5.08;78.46;99755.17;1706589;82;21681;-72
2022/04/17 06:39:46;;;;;;;5.53;2.72;;;;;;;5.18;78.33;99747.52;1713399;82;21040;-72
2022/04/17 06:42:13;;;;;;;6.65;2.83;;;;;;;5.29;77.51;99752.95;1731794;81;21036;-71
2022/04/17 06:44:41;;;;;;;5.65;3.02;;;;;;;5.26;77.23;99753.48;1729274;82;21020;-71
2022/04/17 06:47:08;;;;;;;3.83;2.60;;;;;;;5.25;77.26;99756.78;1729896;82;21060;-72
2022/04/17 06:49:37;;;;;;;7.97;2.52;;;;;;;5.16;76.67;99761.16;1729285;82;21047;-71
2022/04/17 06:52:06;;;;;;;7.30;2.60;;;;;;;5.09;77.15;99756.83;1727940;82;21137;-71
2022/04/17 06:54:45;;;;;;;8.30;2.80;;;;;;;5.11;77.06;99753.81;1728183;82;21517;-71
2022/04/17 06:57:16;;;;;;;5.58;3.35;;;;;;;5.11;76.91;99768.83;1730583;81;21021;-71
2022/04/17 06:59:45;;;;;;;7.35;2.45;;;;;;;5.12;77.47;99769.09;1735158;81;21483;-71
2022/04/17 07:02:14;;;;;;;3.45;2.58;;;;;;;5.20;77.55;99764.42;1728254;81;21355;-71
2022/04/17 07:04:42;;;;;;;6.28;3.20;;;;;;;5.16;78.25;99762.53;1737085;81;21062;-72
2022/04/17 07:07:10;;;;;;;6.42;3.92;;;;;;;5.23;78.52;99763.89;1732520;81;21133;-71
2022/04/17 07:09:39;;;;;;;6.53;3.25;;;;;;;5.35;78.40;99762.22;1731880;81;21040;-71
2022/04/17 07:12:08;;;;;;;9.73;3.47;;;;;;;5.42;78.48;99759.72;1731379;81;21512;-71
2022/04/17 07:14:36;;;;;;;9.73;5.00;;;;;;;5.48;78.18;99764.05;1737846;81;21032;-71
2022/04/17 07:17:12;;;;;;;7.42;4.12;;;;;;;5.53;77.99;99765.41;1736611;81;20981;-71
2022/04/17 07:19:39;;;;;;;13.08;4.55;;;;;;;5.56;77.92;99767.57;1734830;81;21023;-70
2022/04/17 07:22:07;;;;;;;7.85;3.95;;;;;;;5.60;77.92;99758.27;1730754;81;21517;-71
2022/04/17 07:24:37;;;;;;;11.18;4.00;;;;;;;5.66;77.86;99762.63;1727427;82;21547;-72
2022/04/17 07:27:41;;;;;;;7.62;4.20;;;;;;;5.76;77.82;99769.12;1724042;81;20994;-69
2022/04/17 07:30:32;;;;;;;9.08;4.95;;;;;;;5.89;77.90;99764.95;1671311;85;21554;-70
2022/04/17 07:33:00;;;;;;;10.32;5.80;;;;;;;5.94;77.06;99758.08;1674022;85;21558;-70
2022/04/17 07:35:41;;;;;;;10.00;5.67;;;;;;;6.05;77.73;99753.41;1676443;85;21533;-70
2022/04/17 07:38:11;;;;;;;13.35;6.00;;;;;;;6.21;77.87;99754.92;1673121;85;21057;-70
2022/04/17 07:40:39;;;;;;;8.98;3.40;;;;;;;6.39;77.58;99758.63;1676575;85;21111;-70
2022/04/17 07:43:08;;;;;;;4.87;2.65;;;;;;;6.43;76.75;99760.50;1727466;82;22105;-70
2022/04/17 07:45:41;;;;;;;4.03;2.60;;;;;;;6.42;75.99;99758.05;1723276;82;21084;-70
2022/04/17 07:48:09;;;;;;;3.17;1.77;;;;;;;6.42;75.06;99753.95;1729582;82;21017;-71
2022/04/17 07:50:36;;;;;;;2.83;1.75;;;;;;;6.23;75.16;99754.63;1728858;82;21113;-71
2022/04/17 07:53:09;;;;;;;3.72;2.47;;;;;;;6.13;74.40;99747.87;1728806;82;21180;-70
2022/04/17 07:55:37;;;;;;;2.65;1.92;;;;;;;6.02;73.99;99743.00;1725890;82;21088;-71
2022/04/17 08:00:57;;;;;;;2.30;2.00;;;;;;;5.98;75.70;99745.48;1722453;82;21473;-70
2022/04/17 08:03:35;;;;;;;2.08;1.87;;;;;;;6.34;76.91;99743.07;1728680;82;21066;-71
2022/04/17 08:06:06;;;;;;;2.70;1.80;;;;;;;6.69;76.83;99749.33;1726714;82;21048;-71
2022/04/17 08:08:37;;;;;;;1.72;1.60;;;;;;;6.92;75.41;99762.54;1722614;82;21033;-68
2022/04/17 08:11:05;;;;;;;1.80;1.35;;;;;;;6.40;73.03;99758.88;1729048;82;21489;-69
2022/04/17 08:13:35;;;;;;;2.33;1.60;;;;;;;5.53;71.58;99753.64;1728861;82;21091;-68
2022/04/17 08:16:08;;;;;;;4.53;1.90;;;;;;;4.90;72.59;99756.59;1729237;82;21048;-69
2022/04/17 08:18:41;;;;;;;;;;;;;;;4.56;73.88;99753.08;1709383;82;21481;-69
2022/04/17 08:21:09;;;;;;;3.15;1.70;;;;;;;4.34;74.79;99756.90;1729999;82;20211;-69
2022/04/17 08:23:37;;;;;;;3.90;2.33;;;;;;;4.38;75.37;99756.08;1729616;82;20993;-69
2022/04/17 08:29:35;;;;;;;3.77;2.72;;;;;;;4.32;76.94;99757.17;1727652;82;21050;-70
2022/04/17 08:32:01;;;;;;;3.15;2.37;;;;;;;4.45;78.17;99750.34;1729508;82;21150;-70
2022/04/17 08:34:30;;;;;;;3.20;2.15;;;;;;;4.69;79.01;99762.07;1730402;81;21008;-69
2022/04/17 08:36:57;;;;;;;2.30;1.50;;;;;;;4.97;79.79;99757.13;1722032;82;20995;-70
2022/04/17 08:39:27;;;;;;;3.80;1.65;;;;;;;5.26;79.73;99756.21;1729145;82;21485;-70
2022/04/17 08:41:54;;;;;;;5.72;1.55;;;;;;;5.41;78.38;99743.86;1729731;81;21020;-70
2022/04/17 08:44:25;;;;;;;3.30;1.80;;;;;;;5.44;77.56;99745.23;1728880;82;21022;-69
2022/04/17 08:46:53;;;;;;;4.58;2.30;;;;;;;5.44;77.45;99737.83;1728624;82;21030;-70
2022/04/17 08:49:20;;;;;;;6.58;2.58;;;;;;;5.51;76.86;99742.99;1708820;82;21040;-71
2022/04/17 08:51:48;;;;;;;5.78;2.55;;;;;;;5.62;75.95;99738.84;1729400;81;21090;-71
2022/04/17 08:54:17;;;;;;;4.70;2.05;;;;;;;5.75;76.74;99736.06;1729053;81;21046;-70
2022/04/17 08:56:52;;;;;;;3.90;2.70;;;;;;;5.95;75.83;99735.91;1726973;81;21586;-70
2022/04/17 08:59:19;;;;;;;2.97;1.90;;;;;;;6.10;75.17;99735.59;1742214;81;20997;-71
2022/04/17 09:01:46;;;;;;;5.08;3.05;;;;;;;6.24;74.60;99741.78;1744721;81;21013;-71
2022/04/17 09:04:12;;;;;;;5.97;2.72;;;;;;;6.16;72.12;99747.32;1694963;84;21013;-70
2022/04/17 09:06:39;;;;;;;1.62;1.35;;;;;;;6.02;73.37;99748.47;1679199;83;21086;-70
2022/04/17 09:09:08;;;;;;;2.22;1.10;;;;;;;5.85;73.06;99755.94;1686600;83;21052;-70
2022/04/17 09:11:36;;;;;;;1.57;1.15;;;;;;;5.59;73.96;99758.01;1656333;83;21130;-71
2022/04/17 09:14:05;;;;;;;2.02;1.45;;;;;;;5.29;74.68;99760.58;1654242;85;21501;-72
2022/04/17 09:16:38;;;;;;;1.62;1.32;;;;;;;5.22;76.31;99764.17;1687092;83;21531;-72
2022/04/17 09:19:17;;;;;;;1.77;1.40;;;;;;;5.24;77.26;99756.49;1694301;83;21049;-70
2022/04/17 09:21:44;;;;;;;1.95;1.47;;;;;;;5.32;77.03;99752.39;1681110;83;21786;-70
2022/04/17 09:24:26;;;;;;;2.95;2.02;;;;;;;5.32;75.71;99749.66;1684775;83;21502;-73
2022/04/17 09:26:59;;;;;;;3.47;1.77;;;;;;;5.33;75.30;99745.81;1755559;81;21048;-71
2022/04/17 09:29:29;;;;;;;2.83;1.42;;;;;;;5.41;75.76;99741.70;1728550;81;21052;-71
2022/04/17 09:32:10;;;;;;;4.10;2.25;;;;;;;5.63;75.79;99743.23;1742568;81;21465;-72
2022/04/17 09:34:52;;;;;;;2.65;1.87;;;;;;;5.78;75.38;99742.33;1753386;81;21107;-71
2022/04/17 09:37:35;;;;;;;2.58;2.08;;;;;;;5.96;73.66;99735.37;1747191;81;20998;-70
2022/04/17 09:40:06;;;;;;;2.35;1.72;;;;;;;6.07;72.85;99736.95;1756148;81;21079;-72
2022/04/17 09:42:33;;;;;;;2.08;1.35;;;;;;;6.09;70.84;99738.03;1748678;81;21054;-71
2022/04/17 09:45:07;;;;;;;2.40;1.60;;;;;;;6.14;71.24;99735.27;1709902;82;21052;-72
2022/04/17 09:47:35;;;;;;;3.40;2.02;;;;;;;6.12;69.91;99739.41;1751105;81;21133;-71
2022/04/17 09:50:06;;;;;;;8.75;2.70;;;;;;;6.01;69.51;99735.34;1737248;81;21465;-71
2022/04/17 09:52:40;;;;;;;7.85;3.52;;;;;;;5.90;69.98;99733.78;1732500;81;21124;-71
2022/04/17 09:55:10;;;;;;;6.05;2.87;;;;;;;5.91;69.91;99729.93;1750250;80;21056;-71
2022/04/17 09:57:41;;;;;;;7.00;2.62;;;;;;;5.82;70.24;99733.81;1739622;81;21548;-73
2022/04/17 10:00:16;;;;;;;9.18;2.60;;;;;;;5.77;69.67;99722.36;1741023;81;20981;-71
2022/04/17 10:02:44;;;;;;;7.00;2.52;;;;;;;5.70;69.74;99732.78;1732647;80;21030;-71
2022/04/17 10:05:18;;;;;;;5.42;2.70;;;;;;;5.70;69.41;99734.98;1747557;81;21013;-71
2022/04/17 10:07:49;;;;;;;4.15;2.12;;;;;;;5.72;67.80;99727.31;1726435;81;20997;-71
2022/04/17 10:10:23;;;;;;;5.37;2.40;;;;;;;5.75;67.15;99730.59;1741270;81;21493;-71
2022/04/17 10:12:50;;;;;;;2.70;2.17;;;;;;;5.73;67.61;99719.94;1735726;81;21215;-70
2022/04/17 10:15:17;;;;;;;4.05;2.25;;;;;;;5.79;67.94;99724.27;1715464;81;21032;-70
2022/04/17 10:17:49;;;;;;;4.40;2.47;;;;;;;5.93;68.63;99722.27;1654321;85;21056;-70
2022/04/17 10:20:17;;;;;;;6.47;2.92;;;;;;;6.21;68.84;99722.62;1710916;81;21102;-70
2022/04/17 10:26:31;;;;;;;2.17;1.42;;;;;;;6.58;67.55;99720.42;1662831;84;21096;-69
2022/04/17 10:29:26;;;;;;;2.70;1.65;;;;;;;6.35;64.90;99730.21;1650300;85;21564;-72
2022/04/17 10:32:32;;;;;;;2.67;2.00;;;;;;;6.02;65.34;99724.65;1711225;82;21030;-72
2022/04/17 10:35:44;;;;;;;2.72;1.62;;;;;;;5.92;66.01;99724.17;1723924;81;21003;-70
2022/04/17 10:38:45;;;;;;;9.48;2.55;;;;;;;5.85;65.96;99724.49;1702352;81;20993;-70
2022/04/17 10:41:13;;;;;;;2.55;2.02;;;;;;;5.71;66.33;99731.12;1735703;81;21632;-71
2022/04/17 10:43:50;;;;;;;3.15;1.82;;;;;;;5.57;66.76;99728.22;1732882;81;21028;-71
2022/04/17 10:46:24;;;;;;;1.95;1.55;;;;;;;5.62;68.03;99723.81;1736136;81;21506;-71
2022/04/17 10:49:01;;;;;;;2.60;1.87;;;;;;;5.78;68.62;99724.02;1736769;81;21040;-72
2022/04/17 10:51:30;;;;;;;5.95;1.80;;;;;;;6.12;69.10;99714.78;1732933;81;21062;-72
2022/04/17 10:54:07;;;;;;;4.67;1.80;;;;;;;6.54;70.19;99716.61;1731047;81;21076;-71
2022/04/17 10:56:40;;;;;;;3.05;1.17;;;;;;;6.78;66.90;99717.20;1733513;81;21564;-70
2022/04/17 10:59:18;;;;;;;2.27;1.22;;;;;;;6.82;65.60;99714.16;1729209;81;21037;-72
2022/04/17 11:01:53;;;;;;;5.15;2.08;;;;;;;6.85;64.48;99723.70;1724637;81;21095;-73
2022/04/17 11:04:27;;;;;;;1.98;1.52;;;;;;;6.74;63.58;99711.48;1726313;82;36348;-72
2022/04/17 11:07:10;;;;;;;4.47;2.52;;;;;;;6.66;63.99;99717.05;1734117;81;21352;-69
2022/04/17 11:09:41;;;;;;;2.90;1.90;;;;;;;6.66;64.29;99712.95;1727292;81;21588;-70
2022/04/17 11:12:26;;;;;;;1.77;1.40;;;;;;;6.68;64.32;99712.66;1731394;81;21126;-71
2022/04/17 11:15:12;;;;;;;2.05;1.40;;;;;;;6.71;64.28;99710.70;1734644;81;21053;-69
2022/04/17 11:17:46;;;;;;;3.10;1.70;;;;;;;6.75;63.95;99701.36;1728080;81;21088;-71
2022/04/17 11:20:14;;;;;;;2.30;1.77;;;;;;;6.73;64.41;99707.67;1729309;82;21217;-73
2022/04/17 11:22:44;;;;;;;2.22;1.52;;;;;;;6.86;64.22;99704.81;1725469;82;21533;-75
2022/04/17 11:25:19;;;;;;;4.25;2.17;;;;;;;6.97;63.37;99706.33;1729750;82;21031;-74
2022/04/17 11:27:54;;;;;;;4.30;2.20;;;;;;;7.02;62.93;99702.16;1726831;82;21096;-71
2022/04/17 11:30:30;;;;;;;5.47;2.62;;;;;;;7.00;61.92;99692.59;1734941;80;22034;-72
2022/04/17 11:33:02;;;;;;;4.58;2.62;;;;;;;6.93;61.41;99697.05;1727624;82;21573;-69
2022/04/17 11:35:31;;;;;;;3.47;2.05;;;;;;;6.89;62.46;99692.70;1729369;82;21627;-69
2022/04/17 11:38:02;;;;;;;4.90;2.75;;;;;;;6.87;62.73;99694.11;1730180;82;21551;-71
2022/04/17 11:40:33;;;;;;;2.65;2.35;;;;;;;6.71;62.96;99699.75;1731442;81;21500;-70
2022/04/17 11:43:07;;;;;;;2.67;1.40;;;;;;;6.56;63.63;99707.02;1727624;81;21528;-70
2022/04/17 11:45:37;;;;;;;4.37;1.32;;;;;;;6.38;63.15;99729.63;1723111;82;21851;-70
2022/04/17 11:48:11;;;;;;;1.85;1.40;;;;;;;5.97;64.17;99713.77;1726494;82;21079;-71
2022/04/17 11:50:41;;;;;;;2.30;1.50;;;;;;;5.76;65.00;99716.63;1728623;81;21500;-72
2022/04/17 11:53:16;;;;;;;6.87;3.67;;;;;;;5.68;65.94;99707.66;1732899;81;21003;-71
2022/04/17 11:55:44;;;;;;;3.62;2.42;;;;;;;5.78;67.64;99710.34;1735146;81;21576;-70
2022/04/17 11:58:28;;;;;;;3.55;2.42;;;;;;;5.81;67.80;99711.13;1732963;81;21231;-70
2022/04/17 12:01:08;;;;;;;5.37;2.35;;;;;;;5.78;67.60;99708.97;1732469;81;21035;-69
2022/04/17 12:03:37;;;;;;;2.83;1.80;;;;;;;5.86;68.33;99711.64;1732613;81;21040;-74
2022/04/17 12:06:06;;;;;;;6.35;2.30;;;;;;;5.99;68.33;99714.28;1732250;81;21130;-70
2022/04/17 12:08:35;;;;;;;7.37;3.50;;;;;;;6.15;67.55;99710.92;1732417;81;21065;-71
2022/04/17 12:11:08;;;;;;;7.10;2.65;;;;;;;6.17;67.66;99714.20;1731462;81;21543;-70
2022/04/17 12:13:37;;;;;;;8.03;3.37;;;;;;;6.31;67.12;99713.54;1733664;81;21120;-70
2022/04/17 12:16:07;;;;;;;10.53;3.02;;;;;;;6.39;66.54;99707.98;1731583;81;21097;-70
2022/04/17 12:18:40;;;;;;;5.53;2.75;;;;;;;6.39;66.11;99718.94;1740973;81;21055;-72
2022/04/17 12:21:09;;;;;;;5.83;3.00;;;;;;;6.36;65.22;99717.61;1745229;81;21036;-73
2022/04/17 12:23:36;;;;;;;8.68;3.17;;;;;;;6.37;65.93;99717.86;1741447;81;21335;-70
2022/04/17 12:26:06;;;;;;;9.28;3.45;;;;;;;6.56;66.14;99712.50;1717744;81;21008;-72
2022/04/17 12:28:33;;;;;;;13.95;4.60;;;;;;;6.72;65.44;99715.06;1745740;81;21024;-71
2022/04/17 12:31:00;;;;;;;9.75;3.27;;;;;;;6.80;65.17;99719.11;1749811;80;21082;-72
2022/04/17 12:33:29;;;;;;;5.65;2.27;;;;;;;6.79;64.43;99723.76;1740576;81;21015;-73